sensor_id;sensor_type;location;lat;lon;timestamp;pressure;altitude;pressure_sealevel;temperature;humidity
69257;BME280;56376;53.356;-1.748;2022-08-11T00:02:15;100373.47;;;18.53;70.12
69257;BME280;56376;53.356;-1.748;2022-08-11T00:04:48;100381.78;;;18.47;70.85
69257;BME280;56376;53.356;-1.748;2022-08-11T00:07:14;100374.16;;;18.41;70.92
69257;BME280;56376;53.356;-1.748;2022-08-11T00:09:40;100362.31;;;18.32;70.90
69257;BME280;56376;53.356;-1.748;2022-08-11T00:12:16;100365.38;;;18.25;71.30
69257;BME280;56376;53.356;-1.748;2022-08-11T00:14:43;100371.75;;;18.21;71.11
69257;BME280;56376;53.356;-1.748;2022-08-11T00:17:11;100367.66;;;18.15;71.41
69257;BME280;56376;53.356;-1.748;2022-08-11T00:19:39;100367.13;;;18.08;71.43
69257;BME280;56376;53.356;-1.748;2022-08-11T00:22:07;100367.47;;;18.02;71.65
69257;BME280;56376;53.356;-1.748;2022-08-11T00:24:36;100374.63;;;18.00;71.80
69257;BME280;56376;53.356;-1.748;2022-08-11T00:27:03;100366.88;;;17.97;71.41
69257;BME280;56376;53.356;-1.748;2022-08-11T00:29:28;100375.88;;;17.93;71.71
69257;BME280;56376;53.356;-1.748;2022-08-11T00:31:56;100370.94;;;17.87;71.91
69257;BME280;56376;53.356;-1.748;2022-08-11T00:34:26;100375.53;;;17.83;71.59
69257;BME280;56376;53.356;-1.748;2022-08-11T00:37:02;100361.53;;;17.81;71.83
69257;BME280;56376;53.356;-1.748;2022-08-11T00:39:31;100368.59;;;17.81;71.54
69257;BME280;56376;53.356;-1.748;2022-08-11T00:55:37;100356.75;;;17.55;72.77
69257;BME280;56376;53.356;-1.748;2022-08-11T01:31:24;100352.31;;;16.85;74.15
69257;BME280;56376;53.356;-1.748;2022-08-11T01:45:44;100353.47;;;16.61;74.67
69257;BME280;56376;53.356;-1.748;2022-08-11T01:48:33;100359.75;;;16.58;74.53
69257;BME280;56376;53.356;-1.748;2022-08-11T01:51:23;100360.75;;;16.56;74.42
69257;BME280;56376;53.356;-1.748;2022-08-11T01:54:04;100363.53;;;16.53;74.13
69257;BME280;56376;53.356;-1.748;2022-08-11T01:59:28;100355.91;;;16.47;74.62
69257;BME280;56376;53.356;-1.748;2022-08-11T02:05:02;100364.25;;;16.37;74.94
69257;BME280;56376;53.356;-1.748;2022-08-11T02:07:43;100357.34;;;16.35;75.11
69257;BME280;56376;53.356;-1.748;2022-08-11T02:10:44;100361.97;;;16.30;75.26
69257;BME280;56376;53.356;-1.748;2022-08-11T02:13:48;100369.25;;;16.25;75.42
69257;BME280;56376;53.356;-1.748;2022-08-11T02:22:08;100360.19;;;16.11;75.75
69257;BME280;56376;53.356;-1.748;2022-08-11T02:25:01;100366.53;;;16.07;75.70
69257;BME280;56376;53.356;-1.748;2022-08-11T02:27:37;100361.25;;;16.07;75.72
69257;BME280;56376;53.356;-1.748;2022-08-11T02:30:08;100357.88;;;16.05;75.60
69257;BME280;56376;53.356;-1.748;2022-08-11T02:32:47;100359.06;;;15.98;75.71
69257;BME280;56376;53.356;-1.748;2022-08-11T02:35:45;100352.28;;;15.92;75.98
69257;BME280;56376;53.356;-1.748;2022-08-11T02:44:23;100352.69;;;15.83;75.69
69257;BME280;56376;53.356;-1.748;2022-08-11T02:47:31;100353.84;;;15.77;76.11
69257;BME280;56376;53.356;-1.748;2022-08-11T02:50:24;100354.03;;;15.73;75.93
69257;BME280;56376;53.356;-1.748;2022-08-11T02:53:00;100344.41;;;15.72;76.39
69257;BME280;56376;53.356;-1.748;2022-08-11T02:55:51;100352.41;;;15.70;76.55
69257;BME280;56376;53.356;-1.748;2022-08-11T03:01:16;100343.28;;;15.57;76.77
69257;BME280;56376;53.356;-1.748;2022-08-11T03:03:54;100350.53;;;15.52;76.77
69257;BME280;56376;53.356;-1.748;2022-08-11T03:06:28;100349.75;;;15.50;76.87
69257;BME280;56376;53.356;-1.748;2022-08-11T03:09:03;100359.50;;;15.48;76.79
69257;BME280;56376;53.356;-1.748;2022-08-11T03:11:44;100342.97;;;15.44;76.79
69257;BME280;56376;53.356;-1.748;2022-08-11T03:17:47;100352.84;;;15.39;76.81
69257;BME280;56376;53.356;-1.748;2022-08-11T03:20:38;100359.16;;;15.35;76.68
69257;BME280;56376;53.356;-1.748;2022-08-11T03:23:08;100350.63;;;15.30;76.71
69257;BME280;56376;53.356;-1.748;2022-08-11T03:25:56;100351.66;;;15.26;76.89
69257;BME280;56376;53.356;-1.748;2022-08-11T03:28:33;100343.94;;;15.21;76.49
69257;BME280;56376;53.356;-1.748;2022-08-11T03:31:25;100346.66;;;15.20;76.88
69257;BME280;56376;53.356;-1.748;2022-08-11T03:34:09;100341.47;;;15.18;77.06
69257;BME280;56376;53.356;-1.748;2022-08-11T03:39:47;100349.66;;;15.10;77.12
69257;BME280;56376;53.356;-1.748;2022-08-11T03:53:47;100342.56;;;14.92;77.50
69257;BME280;56376;53.356;-1.748;2022-08-11T04:11:59;100341.63;;;14.71;77.90
69257;BME280;56376;53.356;-1.748;2022-08-11T04:20:01;100333.22;;;14.63;78.07
69257;BME280;56376;53.356;-1.748;2022-08-11T04:28:40;100337.06;;;14.54;77.88
69257;BME280;56376;53.356;-1.748;2022-08-11T04:31:37;100337.22;;;14.49;78.22
69257;BME280;56376;53.356;-1.748;2022-08-11T04:34:11;100333.78;;;14.47;78.24
69257;BME280;56376;53.356;-1.748;2022-08-11T04:43:14;100332.56;;;14.34;78.62
69257;BME280;56376;53.356;-1.748;2022-08-11T04:55:25;100336.41;;;14.25;78.57
69257;BME280;56376;53.356;-1.748;2022-08-11T04:58:48;100330.25;;;14.26;78.45
69257;BME280;56376;53.356;-1.748;2022-08-11T05:12:54;100333.22;;;14.17;79.03
69257;BME280;56376;53.356;-1.748;2022-08-11T05:15:43;100335.97;;;14.14;79.38
69257;BME280;56376;53.356;-1.748;2022-08-11T05:18:28;100333.34;;;14.14;79.28
69257;BME280;56376;53.356;-1.748;2022-08-11T05:21:12;100336.84;;;14.13;79.67
69257;BME280;56376;53.356;-1.748;2022-08-11T05:24:03;100336.84;;;14.13;79.73
69257;BME280;56376;53.356;-1.748;2022-08-11T05:26:50;100344.81;;;14.12;79.82
69257;BME280;56376;53.356;-1.748;2022-08-11T05:29:47;100344.94;;;14.09;80.17
69257;BME280;56376;53.356;-1.748;2022-08-11T05:32:40;100345.88;;;14.06;80.21
69257;BME280;56376;53.356;-1.748;2022-08-11T05:35:37;100344.19;;;14.05;80.60
69257;BME280;56376;53.356;-1.748;2022-08-11T05:38:09;100345.13;;;14.04;80.85
69257;BME280;56376;53.356;-1.748;2022-08-11T05:40:55;100349.44;;;14.05;80.69
69257;BME280;56376;53.356;-1.748;2022-08-11T05:43:42;100351.25;;;14.03;80.92
69257;BME280;56376;53.356;-1.748;2022-08-11T05:46:28;100359.09;;;14.04;81.14
69257;BME280;56376;53.356;-1.748;2022-08-11T05:49:13;100356.31;;;14.09;81.14
69257;BME280;56376;53.356;-1.748;2022-08-11T05:51:58;100353.69;;;14.09;81.27
69257;BME280;56376;53.356;-1.748;2022-08-11T05:54:43;100351.84;;;14.11;81.74
69257;BME280;56376;53.356;-1.748;2022-08-11T05:57:32;100355.22;;;14.15;81.66
69257;BME280;56376;53.356;-1.748;2022-08-11T06:00:04;100348.06;;;14.18;81.99
69257;BME280;56376;53.356;-1.748;2022-08-11T06:02:40;100342.69;;;14.21;82.24
69257;BME280;56376;53.356;-1.748;2022-08-11T06:05:06;100344.34;;;14.24;82.30
69257;BME280;56376;53.356;-1.748;2022-08-11T06:07:32;100354.66;;;14.28;82.48
69257;BME280;56376;53.356;-1.748;2022-08-11T06:09:58;100346.44;;;14.38;82.59
69257;BME280;56376;53.356;-1.748;2022-08-11T06:12:28;100345.16;;;14.48;82.54
69257;BME280;56376;53.356;-1.748;2022-08-11T06:15:03;100339.50;;;14.59;82.09
69257;BME280;56376;53.356;-1.748;2022-08-11T06:17:31;100348.81;;;14.67;81.96
69257;BME280;56376;53.356;-1.748;2022-08-11T06:20:08;100336.16;;;14.77;81.70
69257;BME280;56376;53.356;-1.748;2022-08-11T06:22:38;100337.41;;;14.89;81.63
69257;BME280;56376;53.356;-1.748;2022-08-11T06:25:05;100331.75;;;14.98;81.27
69257;BME280;56376;53.356;-1.748;2022-08-11T06:27:34;100339.16;;;15.10;81.53
69257;BME280;56376;53.356;-1.748;2022-08-11T06:30:02;100335.22;;;15.21;81.04
69257;BME280;56376;53.356;-1.748;2022-08-11T06:32:38;100339.22;;;15.29;81.06
69257;BME280;56376;53.356;-1.748;2022-08-11T06:35:21;100337.84;;;15.41;81.68
69257;BME280;56376;53.356;-1.748;2022-08-11T06:43:24;100340.72;;;15.76;81.62
69257;BME280;56376;53.356;-1.748;2022-08-11T06:46:00;100334.91;;;15.88;81.95
69257;BME280;56376;53.356;-1.748;2022-08-11T06:48:30;100331.72;;;16.00;82.51
69257;BME280;56376;53.356;-1.748;2022-08-11T06:50:59;100335.53;;;16.12;82.91
69257;BME280;56376;53.356;-1.748;2022-08-11T06:53:44;100335.81;;;16.25;83.27
69257;BME280;56376;53.356;-1.748;2022-08-11T06:56:12;100339.63;;;16.38;83.53
69257;BME280;56376;53.356;-1.748;2022-08-11T06:58:58;100328.47;;;16.51;83.21
69257;BME280;56376;53.356;-1.748;2022-08-11T07:04:25;100326.50;;;16.73;82.22
69257;BME280;56376;53.356;-1.748;2022-08-11T07:07:20;100323.28;;;16.85;81.86
69257;BME280;56376;53.356;-1.748;2022-08-11T07:13:03;100322.66;;;17.15;81.47
69257;BME280;56376;53.356;-1.748;2022-08-11T07:15:50;100324.53;;;17.30;81.11
69257;BME280;56376;53.356;-1.748;2022-08-11T07:18:23;100314.88;;;17.47;80.83
69257;BME280;56376;53.356;-1.748;2022-08-11T07:21:21;100323.53;;;17.66;79.58
69257;BME280;56376;53.356;-1.748;2022-08-11T07:24:13;100313.81;;;17.84;77.83
69257;BME280;56376;53.356;-1.748;2022-08-11T07:27:00;100309.31;;;18.02;77.73
69257;BME280;56376;53.356;-1.748;2022-08-11T07:29:48;100310.88;;;18.22;76.77
69257;BME280;56376;53.356;-1.748;2022-08-11T07:32:21;100307.25;;;18.39;76.42
69257;BME280;56376;53.356;-1.748;2022-08-11T07:34:54;100320.38;;;18.56;76.37
69257;BME280;56376;53.356;-1.748;2022-08-11T07:37:21;100318.59;;;18.73;75.60
69257;BME280;56376;53.356;-1.748;2022-08-11T07:39:49;100308.06;;;18.87;75.45
69257;BME280;56376;53.356;-1.748;2022-08-11T07:42:20;100313.34;;;19.03;75.80
69257;BME280;56376;53.356;-1.748;2022-08-11T07:44:47;100316.88;;;19.18;75.29
69257;BME280;56376;53.356;-1.748;2022-08-11T07:47:40;100308.84;;;19.34;75.49
69257;BME280;56376;53.356;-1.748;2022-08-11T07:50:25;100308.88;;;19.48;74.21
69257;BME280;56376;53.356;-1.748;2022-08-11T07:53:09;100313.91;;;19.67;73.67
69257;BME280;56376;53.356;-1.748;2022-08-11T07:55:37;100310.50;;;19.79;73.63
69257;BME280;56376;53.356;-1.748;2022-08-11T07:58:03;100314.66;;;19.98;72.76
69257;BME280;56376;53.356;-1.748;2022-08-11T08:00:53;100312.75;;;20.14;70.27
69257;BME280;56376;53.356;-1.748;2022-08-11T08:03:40;100312.59;;;20.30;69.38
69257;BME280;56376;53.356;-1.748;2022-08-11T08:06:26;100308.31;;;20.42;68.66
69257;BME280;56376;53.356;-1.748;2022-08-11T08:09:11;100307.44;;;20.56;69.07
69257;BME280;56376;53.356;-1.748;2022-08-11T08:11:56;100307.19;;;20.73;68.56
69257;BME280;56376;53.356;-1.748;2022-08-11T08:14:42;100309.34;;;20.93;67.57
69257;BME280;56376;53.356;-1.748;2022-08-11T08:17:26;100305.47;;;21.12;67.19
69257;BME280;56376;53.356;-1.748;2022-08-11T08:20:12;100305.34;;;21.26;66.81
69257;BME280;56376;53.356;-1.748;2022-08-11T08:22:39;100306.34;;;21.38;67.56
69257;BME280;56376;53.356;-1.748;2022-08-11T08:25:06;100290.41;;;21.51;67.17
69257;BME280;56376;53.356;-1.748;2022-08-11T08:27:34;100302.63;;;21.66;67.04
69257;BME280;56376;53.356;-1.748;2022-08-11T08:30:02;100292.94;;;21.78;66.11
69257;BME280;56376;53.356;-1.748;2022-08-11T08:32:46;100297.41;;;21.90;64.95
69257;BME280;56376;53.356;-1.748;2022-08-11T08:35:12;100297.47;;;22.01;65.13
69257;BME280;56376;53.356;-1.748;2022-08-11T08:37:39;100295.97;;;22.10;63.82
69257;BME280;56376;53.356;-1.748;2022-08-11T08:40:08;100286.47;;;22.19;63.75
69257;BME280;56376;53.356;-1.748;2022-08-11T08:42:39;100291.91;;;22.30;63.45
69257;BME280;56376;53.356;-1.748;2022-08-11T08:45:11;100296.53;;;22.39;63.75
69257;BME280;56376;53.356;-1.748;2022-08-11T08:47:40;100291.59;;;22.46;64.61
69257;BME280;56376;53.356;-1.748;2022-08-11T08:50:16;100281.34;;;22.53;64.89
69257;BME280;56376;53.356;-1.748;2022-08-11T08:52:55;100283.56;;;22.59;65.54
69257;BME280;56376;53.356;-1.748;2022-08-11T08:55:22;100283.22;;;22.63;65.07
69257;BME280;56376;53.356;-1.748;2022-08-11T08:57:49;100284.56;;;22.69;64.44
69257;BME280;56376;53.356;-1.748;2022-08-11T09:00:17;100282.66;;;22.71;64.35
69257;BME280;56376;53.356;-1.748;2022-08-11T09:02:43;100275.25;;;22.75;62.58
69257;BME280;56376;53.356;-1.748;2022-08-11T09:05:10;100279.28;;;22.80;61.00
69257;BME280;56376;53.356;-1.748;2022-08-11T09:07:36;100270.00;;;22.86;60.21
69257;BME280;56376;53.356;-1.748;2022-08-11T09:10:04;100274.09;;;22.90;59.87
69257;BME280;56376;53.356;-1.748;2022-08-11T09:12:31;100271.34;;;22.92;60.73
69257;BME280;56376;53.356;-1.748;2022-08-11T09:14:59;100265.03;;;22.93;59.65
69257;BME280;56376;53.356;-1.748;2022-08-11T09:17:52;100272.19;;;22.92;58.58
69257;BME280;56376;53.356;-1.748;2022-08-11T09:20:27;100272.06;;;22.94;58.09
69257;BME280;56376;53.356;-1.748;2022-08-11T09:22:57;100270.25;;;22.94;58.31
69257;BME280;56376;53.356;-1.748;2022-08-11T09:25:42;100265.75;;;22.95;58.99
69257;BME280;56376;53.356;-1.748;2022-08-11T09:28:27;100263.34;;;22.92;57.84
69257;BME280;56376;53.356;-1.748;2022-08-11T09:30:56;100266.00;;;22.92;58.04
69257;BME280;56376;53.356;-1.748;2022-08-11T09:33:26;100264.28;;;22.90;57.01
69257;BME280;56376;53.356;-1.748;2022-08-11T09:35:52;100263.34;;;22.92;56.95
69257;BME280;56376;53.356;-1.748;2022-08-11T09:38:22;100255.94;;;22.95;56.19
69257;BME280;56376;53.356;-1.748;2022-08-11T09:41:08;100269.69;;;23.02;54.13
69257;BME280;56376;53.356;-1.748;2022-08-11T09:43:42;100262.19;;;23.07;53.24
69257;BME280;56376;53.356;-1.748;2022-08-11T09:46:27;100261.50;;;23.16;52.82
69257;BME280;56376;53.356;-1.748;2022-08-11T09:48:58;100264.41;;;23.24;51.39
69257;BME280;56376;53.356;-1.748;2022-08-11T09:51:29;100254.84;;;23.33;51.27
69257;BME280;56376;53.356;-1.748;2022-08-11T09:53:56;100250.88;;;23.39;50.99
69257;BME280;56376;53.356;-1.748;2022-08-11T09:56:24;100246.72;;;23.46;51.09
69257;BME280;56376;53.356;-1.748;2022-08-11T09:59:08;100247.00;;;23.54;51.09
69257;BME280;56376;53.356;-1.748;2022-08-11T10:01:42;100248.06;;;23.63;51.29
69257;BME280;56376;53.356;-1.748;2022-08-11T10:04:16;100253.63;;;23.71;50.25
69257;BME280;56376;53.356;-1.748;2022-08-11T10:06:44;100256.81;;;23.76;50.27
69257;BME280;56376;53.356;-1.748;2022-08-11T10:09:50;100246.41;;;23.84;49.47
69257;BME280;56376;53.356;-1.748;2022-08-11T10:12:22;100252.22;;;23.89;48.23
69257;BME280;56376;53.356;-1.748;2022-08-11T10:14:57;100244.94;;;23.91;47.56
69257;BME280;56376;53.356;-1.748;2022-08-11T10:17:44;100248.19;;;23.95;46.98
69257;BME280;56376;53.356;-1.748;2022-08-11T10:20:32;100248.91;;;23.97;47.25
69257;BME280;56376;53.356;-1.748;2022-08-11T10:22:59;100247.09;;;23.97;47.23
69257;BME280;56376;53.356;-1.748;2022-08-11T10:25:45;100251.34;;;24.00;47.06
69257;BME280;56376;53.356;-1.748;2022-08-11T10:28:29;100239.69;;;24.01;46.36
69257;BME280;56376;53.356;-1.748;2022-08-11T10:30:55;100244.06;;;24.02;44.51
69257;BME280;56376;53.356;-1.748;2022-08-11T10:33:40;100229.63;;;24.05;45.28
69257;BME280;56376;53.356;-1.748;2022-08-11T10:36:28;100232.13;;;24.06;44.00
69257;BME280;56376;53.356;-1.748;2022-08-11T10:38:56;100234.81;;;24.06;44.15
69257;BME280;56376;53.356;-1.748;2022-08-11T10:41:23;100231.91;;;24.09;44.44
69257;BME280;56376;53.356;-1.748;2022-08-11T10:44:08;100230.81;;;24.12;44.67
69257;BME280;56376;53.356;-1.748;2022-08-11T10:46:35;100222.66;;;24.13;43.97
69257;BME280;56376;53.356;-1.748;2022-08-11T10:49:20;100224.13;;;24.17;44.39
69257;BME280;56376;53.356;-1.748;2022-08-11T10:51:47;100226.41;;;24.22;44.39
69257;BME280;56376;53.356;-1.748;2022-08-11T10:54:34;100220.81;;;24.25;44.09
69257;BME280;56376;53.356;-1.748;2022-08-11T10:57:19;100221.53;;;24.27;44.28
69257;BME280;56376;53.356;-1.748;2022-08-11T11:00:05;100221.28;;;24.30;43.88
69257;BME280;56376;53.356;-1.748;2022-08-11T11:02:33;100220.28;;;24.31;43.79
69257;BME280;56376;53.356;-1.748;2022-08-11T11:10:27;100215.88;;;24.41;44.55
69257;BME280;56376;53.356;-1.748;2022-08-11T11:12:56;100213.59;;;24.48;44.80
69257;BME280;56376;53.356;-1.748;2022-08-11T11:15:44;100206.03;;;24.53;43.85
69257;BME280;56376;53.356;-1.748;2022-08-11T11:18:31;100210.00;;;24.59;43.63
69257;BME280;56376;53.356;-1.748;2022-08-11T11:21:12;100205.00;;;24.66;43.06
69257;BME280;56376;53.356;-1.748;2022-08-11T11:23:42;100199.41;;;24.69;42.87
69257;BME280;56376;53.356;-1.748;2022-08-11T11:37:45;100207.50;;;24.78;42.03
69257;BME280;56376;53.356;-1.748;2022-08-11T11:40:16;100204.44;;;24.83;42.31
69257;BME280;56376;53.356;-1.748;2022-08-11T11:42:47;100203.78;;;24.91;42.20
69257;BME280;56376;53.356;-1.748;2022-08-11T11:45:15;100204.34;;;24.94;42.24
69257;BME280;56376;53.356;-1.748;2022-08-11T11:47:41;100196.22;;;24.96;42.23
69257;BME280;56376;53.356;-1.748;2022-08-11T11:50:08;100196.53;;;25.02;42.11
69257;BME280;56376;53.356;-1.748;2022-08-11T11:52:37;100195.44;;;25.05;41.48
69257;BME280;56376;53.356;-1.748;2022-08-11T11:55:04;100195.28;;;25.07;42.15
69257;BME280;56376;53.356;-1.748;2022-08-11T11:57:31;100197.69;;;25.10;42.87
69257;BME280;56376;53.356;-1.748;2022-08-11T12:00:17;100198.28;;;25.13;42.13
69257;BME280;56376;53.356;-1.748;2022-08-11T12:03:07;100190.56;;;25.20;42.76
69257;BME280;56376;53.356;-1.748;2022-08-11T12:05:35;100181.31;;;25.24;42.29
69257;BME280;56376;53.356;-1.748;2022-08-11T12:08:02;100173.91;;;25.28;41.97
69257;BME280;56376;53.356;-1.748;2022-08-11T12:10:42;100181.66;;;25.31;42.68
69257;BME280;56376;53.356;-1.748;2022-08-11T12:13:08;100183.75;;;25.37;42.80
69257;BME280;56376;53.356;-1.748;2022-08-11T12:15:52;100171.94;;;25.39;42.31
69257;BME280;56376;53.356;-1.748;2022-08-11T12:18:18;100179.69;;;25.42;41.78
69257;BME280;56376;53.356;-1.748;2022-08-11T12:20:44;100172.41;;;25.44;41.66
69257;BME280;56376;53.356;-1.748;2022-08-11T12:23:11;100174.94;;;25.46;41.67
69257;BME280;56376;53.356;-1.748;2022-08-11T12:26:13;100166.75;;;25.47;41.28
69257;BME280;56376;53.356;-1.748;2022-08-11T12:28:59;100174.66;;;25.49;42.07
69257;BME280;56376;53.356;-1.748;2022-08-11T12:31:27;100168.78;;;25.55;42.13
69257;BME280;56376;53.356;-1.748;2022-08-11T12:34:12;100177.94;;;25.62;40.53
69257;BME280;56376;53.356;-1.748;2022-08-11T12:39:21;100165.56;;;25.71;39.62
69257;BME280;56376;53.356;-1.748;2022-08-11T12:42:11;100159.97;;;25.84;39.09
69257;BME280;56376;53.356;-1.748;2022-08-11T12:44:57;100163.97;;;25.99;38.83
69257;BME280;56376;53.356;-1.748;2022-08-11T12:47:48;100162.13;;;26.09;38.25
69257;BME280;56376;53.356;-1.748;2022-08-11T12:50:33;100164.53;;;26.22;37.74
69257;BME280;56376;53.356;-1.748;2022-08-11T12:53:22;100157.03;;;26.36;37.21
69257;BME280;56376;53.356;-1.748;2022-08-11T12:55:50;100162.28;;;26.47;36.44
69257;BME280;56376;53.356;-1.748;2022-08-11T12:58:39;100156.63;;;26.60;36.52
69257;BME280;56376;53.356;-1.748;2022-08-11T13:01:06;100143.94;;;26.71;36.62
69257;BME280;56376;53.356;-1.748;2022-08-11T13:03:50;100136.53;;;26.83;36.29
69257;BME280;56376;53.356;-1.748;2022-08-11T13:06:34;100146.81;;;26.97;35.79
69257;BME280;56376;53.356;-1.748;2022-08-11T13:09:02;100137.00;;;27.16;36.46
69257;BME280;56376;53.356;-1.748;2022-08-11T13:11:29;100137.38;;;27.31;36.87
69257;BME280;56376;53.356;-1.748;2022-08-11T13:14:14;100135.19;;;27.44;36.08
69257;BME280;56376;53.356;-1.748;2022-08-11T13:16:41;100133.16;;;27.56;35.24
69257;BME280;56376;53.356;-1.748;2022-08-11T13:19:27;100133.09;;;27.66;35.29
69257;BME280;56376;53.356;-1.748;2022-08-11T13:21:54;100126.53;;;27.78;34.87
69257;BME280;56376;53.356;-1.748;2022-08-11T13:24:22;100119.25;;;27.88;34.26
69257;BME280;56376;53.356;-1.748;2022-08-11T13:26:49;100115.50;;;27.99;34.27
69257;BME280;56376;53.356;-1.748;2022-08-11T13:29:22;100107.50;;;28.07;33.75
69257;BME280;56376;53.356;-1.748;2022-08-11T13:31:50;100105.19;;;28.12;33.38
69257;BME280;56376;53.356;-1.748;2022-08-11T13:34:17;100113.50;;;28.19;33.55
69257;BME280;56376;53.356;-1.748;2022-08-11T13:36:44;100120.78;;;28.26;33.11
69257;BME280;56376;53.356;-1.748;2022-08-11T13:39:10;100120.38;;;28.39;32.34
69257;BME280;56376;53.356;-1.748;2022-08-11T13:41:36;100110.94;;;28.53;31.64
69257;BME280;56376;53.356;-1.748;2022-08-11T13:44:06;100113.22;;;28.66;31.85
69257;BME280;56376;53.356;-1.748;2022-08-11T13:46:32;100106.56;;;28.78;32.34
69257;BME280;56376;53.356;-1.748;2022-08-11T13:48:58;100106.28;;;28.89;31.87
69257;BME280;56376;53.356;-1.748;2022-08-11T13:51:25;100107.69;;;29.02;31.23
69257;BME280;56376;53.356;-1.748;2022-08-11T13:54:04;100103.88;;;29.12;30.48
69257;BME280;56376;53.356;-1.748;2022-08-11T13:56:31;100119.53;;;29.17;30.74
69257;BME280;56376;53.356;-1.748;2022-08-11T13:59:00;100112.00;;;29.21;30.25
69257;BME280;56376;53.356;-1.748;2022-08-11T14:01:30;100106.13;;;29.25;29.65
69257;BME280;56376;53.356;-1.748;2022-08-11T14:04:09;100111.84;;;29.30;29.52
69257;BME280;56376;53.356;-1.748;2022-08-11T14:06:40;100104.31;;;29.34;29.26
69257;BME280;56376;53.356;-1.748;2022-08-11T14:09:09;100105.50;;;29.40;29.69
69257;BME280;56376;53.356;-1.748;2022-08-11T14:11:35;100097.28;;;29.49;29.75
69257;BME280;56376;53.356;-1.748;2022-08-11T14:14:24;100096.31;;;29.59;29.29
69257;BME280;56376;53.356;-1.748;2022-08-11T14:16:53;100086.78;;;29.72;29.13
69257;BME280;56376;53.356;-1.748;2022-08-11T14:19:23;100088.28;;;29.83;28.74
69257;BME280;56376;53.356;-1.748;2022-08-11T14:21:50;100086.63;;;29.90;28.62
69257;BME280;56376;53.356;-1.748;2022-08-11T14:24:33;100086.63;;;29.98;28.60
69257;BME280;56376;53.356;-1.748;2022-08-11T14:26:59;100070.47;;;30.07;28.60
69257;BME280;56376;53.356;-1.748;2022-08-11T14:29:26;100077.53;;;30.16;29.34
69257;BME280;56376;53.356;-1.748;2022-08-11T14:31:58;100072.84;;;30.26;28.78
69257;BME280;56376;53.356;-1.748;2022-08-11T14:34:27;100072.66;;;30.36;28.97
69257;BME280;56376;53.356;-1.748;2022-08-11T14:37:01;100068.28;;;30.43;27.89
69257;BME280;56376;53.356;-1.748;2022-08-11T14:39:30;100063.22;;;30.48;27.91
69257;BME280;56376;53.356;-1.748;2022-08-11T14:42:02;100057.31;;;30.53;28.69
69257;BME280;56376;53.356;-1.748;2022-08-11T14:44:52;100065.56;;;30.51;27.85
69257;BME280;56376;53.356;-1.748;2022-08-11T14:47:41;100066.22;;;30.53;28.61
69257;BME280;56376;53.356;-1.748;2022-08-11T14:50:11;100061.16;;;30.58;28.41
69257;BME280;56376;53.356;-1.748;2022-08-11T14:52:46;100060.28;;;30.66;29.20
69257;BME280;56376;53.356;-1.748;2022-08-11T14:55:13;100057.91;;;30.71;28.91
69257;BME280;56376;53.356;-1.748;2022-08-11T14:57:58;100052.53;;;30.79;28.51
69257;BME280;56376;53.356;-1.748;2022-08-11T15:00:24;100050.34;;;30.83;29.05
69257;BME280;56376;53.356;-1.748;2022-08-11T15:02:51;100056.22;;;30.87;29.04
69257;BME280;56376;53.356;-1.748;2022-08-11T15:08:08;100049.09;;;30.94;28.74
69257;BME280;56376;53.356;-1.748;2022-08-11T15:10:34;100051.44;;;30.97;27.88
69257;BME280;56376;53.356;-1.748;2022-08-11T15:13:01;100050.81;;;30.95;28.13
69257;BME280;56376;53.356;-1.748;2022-08-11T15:15:28;100039.81;;;30.96;27.93
69257;BME280;56376;53.356;-1.748;2022-08-11T15:18:16;100042.84;;;31.01;27.98
69257;BME280;56376;53.356;-1.748;2022-08-11T15:20:42;100043.50;;;31.03;28.04
69257;BME280;56376;53.356;-1.748;2022-08-11T15:23:27;100038.94;;;31.04;26.93
69257;BME280;56376;53.356;-1.748;2022-08-11T15:26:32;100035.06;;;31.07;27.71
69257;BME280;56376;53.356;-1.748;2022-08-11T15:29:21;100026.28;;;31.04;27.12
69257;BME280;56376;53.356;-1.748;2022-08-11T15:32:08;100035.56;;;31.02;27.35
69257;BME280;56376;53.356;-1.748;2022-08-11T15:34:52;100028.69;;;30.99;27.47
69257;BME280;56376;53.356;-1.748;2022-08-11T15:37:40;100025.66;;;30.94;27.14
69257;BME280;56376;53.356;-1.748;2022-08-11T15:40:16;100020.09;;;30.96;27.69
69257;BME280;56376;53.356;-1.748;2022-08-11T15:45:56;100021.72;;;30.82;26.95
69257;BME280;56376;53.356;-1.748;2022-08-11T15:51:15;100020.06;;;30.65;27.24
69257;BME280;56376;53.356;-1.748;2022-08-11T15:53:56;100016.84;;;30.61;27.27
69257;BME280;56376;53.356;-1.748;2022-08-11T15:56:31;100013.66;;;30.57;26.81
69257;BME280;56376;53.356;-1.748;2022-08-11T15:59:00;100012.31;;;30.53;27.62
69257;BME280;56376;53.356;-1.748;2022-08-11T16:01:46;100011.66;;;30.51;27.36
69257;BME280;56376;53.356;-1.748;2022-08-11T16:04:31;100006.97;;;30.45;27.44
69257;BME280;56376;53.356;-1.748;2022-08-11T16:07:01;100007.63;;;30.39;27.58
69257;BME280;56376;53.356;-1.748;2022-08-11T16:09:38;100005.47;;;30.34;27.70
69257;BME280;56376;53.356;-1.748;2022-08-11T16:12:08;100002.13;;;30.32;27.97
69257;BME280;56376;53.356;-1.748;2022-08-11T16:14:46;100003.09;;;30.31;28.47
69257;BME280;56376;53.356;-1.748;2022-08-11T16:17:36;99995.88;;;30.32;28.46
69257;BME280;56376;53.356;-1.748;2022-08-11T16:20:04;100002.47;;;30.29;27.83
69257;BME280;56376;53.356;-1.748;2022-08-11T16:22:33;99998.53;;;30.24;27.39
69257;BME280;56376;53.356;-1.748;2022-08-11T16:25:20;99993.38;;;30.14;27.52
69257;BME280;56376;53.356;-1.748;2022-08-11T16:27:55;100001.78;;;30.11;27.98
69257;BME280;56376;53.356;-1.748;2022-08-11T16:30:33;100002.28;;;30.06;28.09
69257;BME280;56376;53.356;-1.748;2022-08-11T16:33:00;99998.94;;;30.04;28.00
69257;BME280;56376;53.356;-1.748;2022-08-11T16:35:29;99996.56;;;30.01;27.66
69257;BME280;56376;53.356;-1.748;2022-08-11T16:38:15;99997.09;;;29.96;27.21
69257;BME280;56376;53.356;-1.748;2022-08-11T16:41:02;99996.75;;;29.91;27.24